Platte, Nebraska
Current Conditions -  °F | °C
As of 2:53 PM on Wednesday 17 Dec 2014 (Local Time) from KHSI Reporting Station
Overcast Overcast  
Wind Chill: 17°   Ceiling: 6500
Heat Index: 25°   Visibility: 10mi
Dew Point: 19°   Wind: 7mph
Humidity: 78%   Direction: 130°SE
Pressure: 30.16"   Gusts: NA
Location:  40.6115°N, 98.6672°W
Report Text: KHSI 172053Z AUTO 13006KT 10SM FEW012 OVC065 M04/M07 A3016 RMK AO2 SLP241 T10391072 56025
Loading
Personal Weather Stations






























Interactive Weather Map New forecast layout! Learn more

10-Day Weather Forecast

Advertisements
Track Severe Weather on mobile